Time;durP1;ratioP1;P1;durP2;ratioP2;P2;SDS_P1;SDS_P2;PMS_P1;PMS_P2;Temp;Humidity;BMP_temperature;BMP_pressure;BME280_temperature;BME280_humidity;BME280_pressure;Samples;Min_cycle;Max_cycle;Signal;HPM_P1;HPM_P2
2022/04/11 00:02:06;;;;;;;8.30;2.90;;;;;;;;;;6200257;28;20271;-68
2022/04/11 00:05:26;;;;;;;9.60;3.23;;;;;;;;;;6204488;28;20221;-68
2022/04/11 00:08:47;;;;;;;6.97;3.97;;;;;;;;;;6199418;28;20229;-68
2022/04/11 00:12:10;;;;;;;5.73;2.43;;;;;;;;;;6203521;28;20580;-67
2022/04/11 00:15:33;;;;;;;7.13;3.07;;;;;;;;;;6203215;28;20229;-69
2022/04/11 00:18:53;;;;;;;4.80;2.67;;;;;;;;;;6191119;28;20244;-70
2022/04/11 00:22:13;;;;;;;6.57;3.67;;;;;;;;;;6204150;28;20736;-69
2022/04/11 00:25:34;;;;;;;5.63;2.93;;;;;;;;;;6202488;28;20229;-69
2022/04/11 00:28:56;;;;;;;7.83;2.93;;;;;;;;;;6204576;28;20241;-69
2022/04/11 00:32:16;;;;;;;7.83;2.67;;;;;;;;;;6201094;28;20233;-69
2022/04/11 00:35:37;;;;;;;6.63;2.87;;;;;;;;;;6203603;28;20221;-69
2022/04/11 00:38:57;;;;;;;8.73;3.20;;;;;;;;;;6217507;28;20233;-70
2022/04/11 00:42:18;;;;;;;5.43;2.53;;;;;;;;;;6206161;28;20245;-70
2022/04/11 00:45:40;;;;;;;5.93;3.47;;;;;;;;;;6219890;28;20347;-69
2022/04/11 00:49:01;;;;;;;5.17;2.97;;;;;;;;;;6211607;28;20221;-69
2022/04/11 00:52:21;;;;;;;5.13;2.50;;;;;;;;;;6225012;28;20565;-69
2022/04/11 00:55:43;;;;;;;12.60;4.33;;;;;;;;;;6205053;28;20257;-70
2022/04/11 00:59:03;;;;;;;5.03;2.73;;;;;;;;;;6210099;28;20894;-69
2022/04/11 01:02:25;;;;;;;3.17;2.27;;;;;;;;;;6205788;28;20229;-70
2022/04/11 01:05:46;;;;;;;8.60;2.83;;;;;;;;;;6212564;28;20233;-68
2022/04/11 01:09:06;;;;;;;6.10;2.30;;;;;;;;;;6207545;28;20230;-68
2022/04/11 01:12:27;;;;;;;5.37;2.40;;;;;;;;;;6202229;28;20233;-68
2022/04/11 01:15:54;;;;;;;7.93;3.50;;;;;;;;;;6215241;28;20312;-68
2022/04/11 01:19:17;;;;;;;3.73;2.00;;;;;;;;;;6206352;28;20316;-69
2022/04/11 01:22:39;;;;;;;14.23;3.17;;;;;;;;;;6218094;28;20221;-69
2022/04/11 01:25:59;;;;;;;4.23;2.50;;;;;;;;;;6204652;28;20229;-68
2022/04/11 01:29:20;;;;;;;8.27;2.50;;;;;;;;;;6209551;28;20229;-68
2022/04/11 01:32:41;;;;;;;7.13;2.87;;;;;;;;;;6206944;28;20253;-67
2022/04/11 01:36:01;;;;;;;6.17;2.93;;;;;;;;;;6204308;28;20229;-68
2022/04/11 01:39:24;;;;;;;6.63;2.70;;;;;;;;;;6203582;28;20233;-68
2022/04/11 01:42:45;;;;;;;4.23;2.30;;;;;;;;;;6203028;28;22003;-68
2022/04/11 01:46:06;;;;;;;4.23;2.17;;;;;;;;;;6202429;28;20237;-68
2022/04/11 01:49:32;;;;;;;7.73;2.33;;;;;;;;;;6222149;28;20237;-69
2022/04/11 01:52:54;;;;;;;6.57;2.33;;;;;;;;;;6208428;28;25439;-69
2022/04/11 01:56:16;;;;;;;3.77;1.90;;;;;;;;;;6205238;28;20776;-68
2022/04/11 01:59:37;;;;;;;3.93;2.43;;;;;;;;;;6218816;28;20225;-69
2022/04/11 02:02:58;;;;;;;6.20;2.87;;;;;;;;;;6204656;28;20233;-70
2022/04/11 02:06:18;;;;;;;6.20;3.07;;;;;;;;;;6211971;28;20257;-69
2022/04/11 02:09:39;;;;;;;5.50;2.70;;;;;;;;;;6213253;28;20237;-69
2022/04/11 02:13:01;;;;;;;6.07;2.40;;;;;;;;;;6200705;28;20233;-66
2022/04/11 02:16:23;;;;;;;5.60;2.57;;;;;;;;;;6205937;28;20924;-70
2022/04/11 02:19:44;;;;;;;7.83;2.50;;;;;;;;;;6200196;28;20622;-69
2022/04/11 02:23:05;;;;;;;6.37;2.50;;;;;;;;;;6216875;28;20229;-68
2022/04/11 02:26:25;;;;;;;8.37;2.80;;;;;;;;;;6207547;28;20237;-69
2022/04/11 02:29:47;;;;;;;6.60;2.73;;;;;;;;;;6205998;28;20320;-70
2022/04/11 02:33:09;;;;;;;2.30;1.90;;;;;;;;;;6199248;28;20229;-69
2022/04/11 02:36:29;;;;;;;3.53;2.30;;;;;;;;;;6194666;28;20232;-70
2022/04/11 02:39:50;;;;;;;5.13;2.83;;;;;;;;;;6218598;28;20233;-69
2022/04/11 02:43:11;;;;;;;3.33;2.27;;;;;;;;;;6194598;28;20237;-69
2022/04/11 02:46:42;;;;;;;3.07;1.97;;;;;;;;;;6215889;28;20236;-69
2022/04/11 02:50:03;;;;;;;6.73;2.60;;;;;;;;;;6205129;28;20237;-69
2022/04/11 02:53:37;;;;;;;2.60;2.40;;;;;;;;;;6200931;28;20232;-69
2022/04/11 02:56:58;;;;;;;7.50;2.23;;;;;;;;;;6204686;28;20556;-68
2022/04/11 03:00:19;;;;;;;5.33;2.27;;;;;;;;;;6221570;28;20675;-69
2022/04/11 03:03:49;;;;;;;3.67;2.57;;;;;;;;;;6210103;28;20237;-69
2022/04/11 03:07:11;;;;;;;10.73;3.10;;;;;;;;;;6200218;28;20226;-69
2022/04/11 03:10:32;;;;;;;4.43;2.90;;;;;;;;;;6207670;28;20221;-67
2022/04/11 03:13:57;;;;;;;4.63;2.57;;;;;;;;;;6183276;28;20242;-70
2022/04/11 03:17:19;;;;;;;6.47;2.70;;;;;;;;;;6201225;28;20241;-68
2022/04/11 03:20:42;;;;;;;6.43;3.17;;;;;;;;;;6207359;28;20240;-69
2022/04/11 03:24:03;;;;;;;3.90;2.53;;;;;;;;;;6214079;28;20665;-69
2022/04/11 03:27:24;;;;;;;5.20;3.23;;;;;;;;;;6194359;28;20265;-69
2022/04/11 03:30:45;;;;;;;12.03;3.90;;;;;;;;;;6210086;28;20749;-69
2022/04/11 03:34:06;;;;;;;3.97;2.87;;;;;;;;;;6204032;28;20533;-68
2022/04/11 03:37:28;;;;;;;5.27;2.73;;;;;;;;;;6195467;28;20252;-69
2022/04/11 03:40:58;;;;;;;4.00;3.47;;;;;;;;;;6215713;28;20316;-69
2022/04/11 03:44:19;;;;;;;3.80;2.93;;;;;;;;;;6209079;28;20221;-69
2022/04/11 03:47:42;;;;;;;6.10;3.07;;;;;;;;;;6195555;28;20492;-69
2022/04/11 03:51:06;;;;;;;5.03;3.77;;;;;;;;;;6203075;28;20602;-69
2022/04/11 03:54:28;;;;;;;7.13;3.13;;;;;;;;;;6204114;28;20234;-69
2022/04/11 03:57:49;;;;;;;7.03;2.87;;;;;;;;;;6216353;28;20233;-70
2022/04/11 04:01:10;;;;;;;5.43;3.47;;;;;;;;;;6197295;28;20228;-69
2022/04/11 04:04:31;;;;;;;3.40;2.77;;;;;;;;;;6212671;28;20233;-68
2022/04/11 04:07:52;;;;;;;5.27;3.13;;;;;;;;;;6223668;28;20232;-69
2022/04/11 04:11:16;;;;;;;3.13;2.57;;;;;;;;;;6204905;28;20238;-69
2022/04/11 04:14:43;;;;;;;3.77;3.10;;;;;;;;;;6207635;28;20244;-68
2022/04/11 04:18:05;;;;;;;7.03;4.17;;;;;;;;;;6206666;28;20253;-69
2022/04/11 04:21:26;;;;;;;3.73;3.00;;;;;;;;;;6196712;28;20233;-69
2022/04/11 04:24:47;;;;;;;9.40;4.33;;;;;;;;;;6218294;28;20273;-69
2022/04/11 04:28:09;;;;;;;9.63;4.67;;;;;;;;;;6208724;28;20228;-68
2022/04/11 04:31:31;;;;;;;6.40;3.57;;;;;;;;;;6200871;28;20347;-69
2022/04/11 04:34:53;;;;;;;10.57;4.10;;;;;;;;;;6200881;28;20225;-70
2022/04/11 04:38:15;;;;;;;7.13;3.43;;;;;;;;;;6206868;28;20229;-68
2022/04/11 04:41:42;;;;;;;9.73;3.77;;;;;;;;;;6199482;28;20236;-70
2022/04/11 04:45:08;;;;;;;7.13;4.80;;;;;;;;;;6202441;28;20225;-68
2022/04/11 04:48:44;;;;;;;9.87;4.20;;;;;;;;;;6204709;28;20240;-68
2022/04/11 04:52:06;;;;;;;6.57;3.80;;;;;;;;;;6202272;28;21562;-70
2022/04/11 04:55:30;;;;;;;4.50;3.53;;;;;;;;;;6210904;28;20229;-69
2022/04/11 04:58:51;;;;;;;10.33;4.27;;;;;;;;;;6193725;28;20229;-69
2022/04/11 05:02:14;;;;;;;5.77;3.67;;;;;;;;;;6195656;28;20233;-69
2022/04/11 05:05:36;;;;;;;5.97;4.20;;;;;;;;;;6201368;28;20228;-69
2022/04/11 05:08:56;;;;;;;7.10;3.27;;;;;;;;;;6198834;28;20237;-69
2022/04/11 05:12:17;;;;;;;4.53;3.63;;;;;;;;;;6209714;28;20241;-69
2022/04/11 05:15:39;;;;;;;5.30;3.73;;;;;;;;;;6212198;28;20237;-68
2022/04/11 05:19:07;;;;;;;4.40;3.30;;;;;;;;;;6202857;28;20549;-69
2022/04/11 05:22:28;;;;;;;4.63;3.33;;;;;;;;;;6205073;28;20257;-68
2022/04/11 05:25:48;;;;;;;5.77;3.43;;;;;;;;;;6203932;28;20221;-69
2022/04/11 05:29:11;;;;;;;7.13;3.47;;;;;;;;;;6212323;28;20228;-68
2022/04/11 05:32:33;;;;;;;6.67;4.40;;;;;;;;;;6196944;28;20320;-69
2022/04/11 05:35:56;;;;;;;7.50;4.53;;;;;;;;;;6220244;28;20241;-73
2022/04/11 05:39:16;;;;;;;4.10;3.60;;;;;;;;;;6192804;28;20229;-68
2022/04/11 05:42:38;;;;;;;7.50;3.67;;;;;;;;;;6207907;28;20324;-68
2022/04/11 05:46:01;;;;;;;7.10;3.73;;;;;;;;;;6193940;28;20233;-70
2022/04/11 05:49:22;;;;;;;4.40;3.23;;;;;;;;;;6194846;28;20997;-72
2022/04/11 05:52:45;;;;;;;5.70;3.70;;;;;;;;;;6199335;28;20233;-69
2022/04/11 05:56:07;;;;;;;5.03;3.70;;;;;;;;;;6193076;28;20253;-72
2022/04/11 05:59:28;;;;;;;6.23;3.97;;;;;;;;;;6218932;28;20236;-73
2022/04/11 06:02:50;;;;;;;5.93;3.53;;;;;;;;;;6194164;28;20322;-71
2022/04/11 06:06:12;;;;;;;8.53;4.30;;;;;;;;;;6204745;28;20336;-72
2022/04/11 06:09:34;;;;;;;7.30;3.97;;;;;;;;;;6205985;28;20253;-70
2022/04/11 06:12:55;;;;;;;6.07;3.40;;;;;;;;;;6197307;28;20245;-72
2022/04/11 06:16:16;;;;;;;7.23;4.07;;;;;;;;;;6199148;28;20259;-69
2022/04/11 06:19:37;;;;;;;6.60;4.40;;;;;;;;;;6200849;28;20238;-69
2022/04/11 06:22:58;;;;;;;6.20;4.20;;;;;;;;;;6204248;28;20244;-68
2022/04/11 06:26:21;;;;;;;5.23;3.47;;;;;;;;;;6202223;28;20943;-71
2022/04/11 06:29:42;;;;;;;7.90;2.67;;;;;;;;;;6198531;28;20230;-72
2022/04/11 06:33:03;;;;;;;7.33;4.93;;;;;;;;;;6198799;28;20253;-75
2022/04/11 06:36:23;;;;;;;6.63;3.80;;;;;;;;;;6200419;28;20233;-74
2022/04/11 06:39:44;;;;;;;6.43;3.33;;;;;;;;;;6215819;28;20234;-76
2022/04/11 06:43:07;;;;;;;10.27;4.70;;;;;;;;;;6213461;28;20217;-72
2022/04/11 06:46:38;;;;;;;5.10;3.53;;;;;;;;;;6199679;28;20237;-73
2022/04/11 06:49:59;;;;;;;6.07;3.77;;;;;;;;;;6221379;28;20241;-73
2022/04/11 06:53:20;;;;;;;7.30;4.50;;;;;;;;;;6210438;28;20264;-72
2022/04/11 06:56:40;;;;;;;5.73;4.17;;;;;;;;;;6200720;28;20241;-71
2022/04/11 07:00:03;;;;;;;12.50;4.77;;;;;;;;;;6206032;28;20237;-70
2022/04/11 07:03:24;;;;;;;5.13;2.67;;;;;;;;;;6198558;28;20508;-69
2022/04/11 07:06:44;;;;;;;7.27;3.50;;;;;;;;;;6199684;28;20261;-72
2022/04/11 07:10:06;;;;;;;4.93;3.63;;;;;;;;;;6202381;28;20623;-72
2022/04/11 07:13:27;;;;;;;7.97;3.03;;;;;;;;;;6198897;28;20249;-71
2022/04/11 07:16:51;;;;;;;4.37;3.80;;;;;;;;;;6198455;28;20273;-71
2022/04/11 07:20:12;;;;;;;7.50;3.40;;;;;;;;;;6196776;28;20237;-72
2022/04/11 07:23:33;;;;;;;5.17;3.47;;;;;;;;;;6204557;28;20234;-69
2022/04/11 07:26:53;;;;;;;6.60;3.63;;;;;;;;;;6198373;28;20239;-67
2022/04/11 07:30:14;;;;;;;6.20;2.90;;;;;;;;;;6194497;28;20279;-73
2022/04/11 07:33:36;;;;;;;7.50;3.87;;;;;;;;;;6195965;28;20332;-71
2022/04/11 07:36:56;;;;;;;7.30;3.43;;;;;;;;;;6204621;28;20535;-69
2022/04/11 07:40:17;;;;;;;3.77;2.80;;;;;;;;;;6206477;28;20237;-70
2022/04/11 07:43:38;;;;;;;5.47;3.70;;;;;;;;;;6199460;28;20551;-69
2022/04/11 07:46:58;;;;;;;7.57;3.83;;;;;;;;;;6202184;28;20640;-70
2022/04/11 07:50:20;;;;;;;7.83;3.70;;;;;;;;;;6209955;28;20233;-71
2022/04/11 07:53:41;;;;;;;9.00;4.20;;;;;;;;;;6202856;28;20328;-71
2022/04/11 07:57:01;;;;;;;8.23;4.77;;;;;;;;;;6206818;28;20752;-69
2022/04/11 08:00:22;;;;;;;7.17;3.97;;;;;;;;;;6205093;28;20233;-70
2022/04/11 08:03:43;;;;;;;6.53;3.63;;;;;;;;;;6191658;28;20233;-73
2022/04/11 08:07:05;;;;;;;10.33;4.67;;;;;;;;;;6207631;28;20235;-73
2022/04/11 08:10:26;;;;;;;5.83;3.87;;;;;;;;;;6208737;28;20241;-73
2022/04/11 08:13:46;;;;;;;7.20;3.80;;;;;;;;;;6202681;28;20486;-73
2022/04/11 08:17:07;;;;;;;5.00;2.77;;;;;;;;;;6204171;28;20237;-73
2022/04/11 08:20:28;;;;;;;7.07;3.43;;;;;;;;;;6205031;28;20241;-73
2022/04/11 08:23:50;;;;;;;8.17;3.50;;;;;;;;;;6201109;28;20311;-74
2022/04/11 08:27:10;;;;;;;9.27;3.10;;;;;;;;;;6195763;28;20666;-72
2022/04/11 08:30:30;;;;;;;6.20;3.40;;;;;;;;;;6204816;28;20233;-72
2022/04/11 08:33:51;;;;;;;4.60;3.13;;;;;;;;;;6200889;28;20831;-70
2022/04/11 08:37:11;;;;;;;7.17;2.93;;;;;;;;;;6204950;28;20233;-71
2022/04/11 08:40:33;;;;;;;5.97;3.30;;;;;;;;;;6202166;28;20839;-71
2022/04/11 08:43:56;;;;;;;10.30;3.17;;;;;;;;;;6202491;28;20237;-72
2022/04/11 08:47:17;;;;;;;5.80;3.27;;;;;;;;;;6206848;28;20229;-71
2022/04/11 08:50:37;;;;;;;7.37;3.17;;;;;;;;;;6204736;28;20264;-71
2022/04/11 08:53:59;;;;;;;4.40;2.67;;;;;;;;;;6197952;28;21196;-69
2022/04/11 08:57:22;;;;;;;4.07;2.20;;;;;;;;;;6199916;28;20221;-70
2022/04/11 09:00:42;;;;;;;3.77;2.07;;;;;;;;;;6201587;28;20235;-72
2022/04/11 09:04:03;;;;;;;5.33;1.50;;;;;;;;;;6199305;28;20230;-73
2022/04/11 09:07:23;;;;;;;3.20;1.67;;;;;;;;;;6206138;28;20674;-69
2022/04/11 09:10:44;;;;;;;5.13;1.97;;;;;;;;;;6201334;28;20237;-69
2022/04/11 09:14:07;;;;;;;2.47;1.67;;;;;;;;;;6206109;28;20723;-70
2022/04/11 09:17:27;;;;;;;3.63;1.67;;;;;;;;;;6203868;28;20229;-70
2022/04/11 09:20:50;;;;;;;1.43;1.27;;;;;;;;;;6201749;28;20268;-71
2022/04/11 09:24:14;;;;;;;4.60;1.60;;;;;;;;;;6208861;28;20229;-67
2022/04/11 09:27:35;;;;;;;4.00;2.10;;;;;;;;;;6208108;28;20233;-70
2022/04/11 09:31:06;;;;;;;5.20;1.93;;;;;;;;;;6207443;28;20229;-69
2022/04/11 09:34:26;;;;;;;3.03;1.83;;;;;;;;;;6214966;28;20229;-69
2022/04/11 09:37:47;;;;;;;6.33;1.90;;;;;;;;;;6209492;28;20229;-69
2022/04/11 09:41:07;;;;;;;2.60;1.30;;;;;;;;;;6207020;28;20233;-70
2022/04/11 09:44:29;;;;;;;2.97;1.20;;;;;;;;;;6207798;28;20237;-69
2022/04/11 09:48:00;;;;;;;2.70;1.30;;;;;;;;;;6211607;28;20213;-72
2022/04/11 09:51:20;;;;;;;2.57;1.53;;;;;;;;;;6206383;28;20319;-71
2022/04/11 09:54:43;;;;;;;2.67;1.70;;;;;;;;;;6207408;28;20652;-71
2022/04/11 09:58:04;;;;;;;3.80;1.57;;;;;;;;;;6213658;28;20599;-71
2022/04/11 10:01:25;;;;;;;4.37;1.60;;;;;;;;;;6210618;28;20253;-71
2022/04/11 10:04:48;;;;;;;3.03;1.50;;;;;;;;;;6210797;28;20233;-68
2022/04/11 10:08:09;;;;;;;4.50;1.90;;;;;;;;;;6194330;28;21371;-68
2022/04/11 10:11:30;;;;;;;4.37;1.83;;;;;;;;;;6207011;28;20236;-67
2022/04/11 10:14:52;;;;;;;3.30;1.83;;;;;;;;;;6213923;28;20237;-68
2022/04/11 10:18:14;;;;;;;4.67;1.50;;;;;;;;;;6194417;28;20524;-67
2022/04/11 10:21:37;;;;;;;2.57;1.37;;;;;;;;;;6210472;28;20615;-70
2022/04/11 10:25:02;;;;;;;5.20;2.23;;;;;;;;;;6204763;28;20233;-69
2022/04/11 10:28:23;;;;;;;4.50;2.10;;;;;;;;;;6210707;28;20594;-68
2022/04/11 10:32:04;;;;;;;3.03;1.77;;;;;;;;;;6206707;28;20881;-69
2022/04/11 10:39:15;;;;;;;2.97;2.13;;;;;;;;;;6072550;29;20232;-69
2022/04/11 10:42:37;;;;;;;3.67;2.10;;;;;;;;;;6064054;29;20257;-68
2022/04/11 10:45:58;;;;;;;3.37;1.73;;;;;;;;;;6091872;29;20228;-69
2022/04/11 10:49:19;;;;;;;2.40;1.97;;;;;;;;;;6092078;29;20221;-68
2022/04/11 10:52:41;;;;;;;2.73;2.10;;;;;;;;;;6095586;29;20232;-68
2022/04/11 10:56:05;;;;;;;3.83;1.93;;;;;;;;;;6076856;29;20596;-70
2022/04/11 10:59:28;;;;;;;2.70;1.63;;;;;;;;;;6069734;29;20253;-70
2022/04/11 11:03:06;;;;;;;3.73;2.10;;;;;;;;;;6081436;29;20240;-70
2022/04/11 11:06:30;;;;;;;5.43;2.30;;;;;;;;;;6089065;29;21009;-68
2022/04/11 11:09:54;;;;;;;1.83;1.40;;;;;;;;;;6087408;29;20646;-68
2022/04/11 11:13:24;;;;;;;4.97;1.80;;;;;;;;;;6083792;29;20508;-69
2022/04/11 11:17:03;;;;;;;1.87;1.73;;;;;;;;;;6079515;29;20232;-68
2022/04/11 11:20:24;;;;;;;1.77;1.50;;;;;;;;;;6088825;29;20224;-68
2022/04/11 11:24:10;;;;;;;3.60;2.40;;;;;;;;;;6087809;29;20228;-68
2022/04/11 11:27:31;;;;;;;5.33;2.17;;;;;;;;;;6079036;29;20236;-73
2022/04/11 11:30:51;;;;;;;2.97;1.47;;;;;;;;;;6085078;29;20641;-72
2022/04/11 11:34:14;;;;;;;3.43;1.40;;;;;;;;;;6081391;29;20296;-70
2022/04/11 11:37:35;;;;;;;4.03;1.73;;;;;;;;;;6078768;29;20236;-68
2022/04/11 11:40:56;;;;;;;2.03;1.60;;;;;;;;;;6087453;29;20266;-69
2022/04/11 11:44:17;;;;;;;7.63;2.67;;;;;;;;;;6082723;29;20570;-67
2022/04/11 11:47:38;;;;;;;3.60;1.60;;;;;;;;;;6085859;29;20224;-67
2022/04/11 11:51:02;;;;;;;1.92;1.38;;;;;;;;;;6084969;29;20327;-67
2022/04/11 11:54:32;;;;;;;4.45;1.80;;;;;;;;;;6083362;29;20236;-68
2022/04/11 11:58:03;;;;;;;4.25;1.42;;;;;;;;;;6088726;29;20319;-67
2022/04/11 12:01:29;;;;;;;4.47;2.03;;;;;;;;;;6084495;29;20272;-68
2022/04/11 12:04:49;;;;;;;2.70;1.40;;;;;;;;;;6077117;29;20779;-66
2022/04/11 12:08:14;;;;;;;2.95;1.27;;;;;;;;;;6084192;29;20296;-72
2022/04/11 12:11:35;;;;;;;3.40;1.60;;;;;;;;;;6082692;29;20248;-68
2022/04/11 12:14:59;;;;;;;2.72;1.60;;;;;;;;;;6084110;29;20236;-68
2022/04/11 12:18:19;;;;;;;2.90;1.50;;;;;;;;;;6075578;29;20620;-68
2022/04/11 12:21:44;;;;;;;2.42;1.33;;;;;;;;;;6071261;29;20233;-69
2022/04/11 12:25:21;;;;;;;4.13;1.90;;;;;;;;;;6079456;29;20598;-69
2022/04/11 12:28:41;;;;;;;4.03;1.02;;;;;;;;;;6084349;29;20609;-68
2022/04/11 12:32:03;;;;;;;2.67;1.40;;;;;;;;;;6079336;29;20240;-67
2022/04/11 12:35:24;;;;;;;4.72;2.08;;;;;;;;;;6086558;29;20337;-69
2022/04/11 12:38:45;;;;;;;2.63;1.38;;;;;;;;;;6087987;29;20229;-69
2022/04/11 12:42:17;;;;;;;2.92;1.48;;;;;;;;;;6075926;29;20228;-69
2022/04/11 12:45:38;;;;;;;2.50;1.40;;;;;;;;;;6078954;29;20262;-70
2022/04/11 12:48:59;;;;;;;2.33;1.33;;;;;;;;;;6090394;29;20232;-71
2022/04/11 12:52:21;;;;;;;2.33;1.33;;;;;;;;;;6088660;29;20244;-71
2022/04/11 12:55:42;;;;;;;1.80;1.38;;;;;;;;;;6091672;29;20228;-68
2022/04/11 12:59:04;;;;;;;3.80;1.73;;;;;;;;;;6086683;29;20229;-72
2022/04/11 13:02:26;;;;;;;1.88;1.40;;;;;;;;;;6086673;29;20229;-71
2022/04/11 13:05:46;;;;;;;2.35;1.80;;;;;;;;;;6080619;29;20371;-73
2022/04/11 13:09:07;;;;;;;2.67;1.65;;;;;;;;;;6088127;29;20232;-70
2022/04/11 13:12:27;;;;;;;3.75;1.50;;;;;;;;;;6093714;29;20236;-70
2022/04/11 13:19:27;;;;;;;2.80;1.63;;;;;;;;;;6085042;29;20233;-69
2022/04/11 13:22:47;;;;;;;6.38;1.70;;;;;;;;;;6090877;29;20237;-74
2022/04/11 13:26:08;;;;;;;3.17;1.80;;;;;;;;;;6081711;29;20244;-72
2022/04/11 13:29:29;;;;;;;2.90;1.67;;;;;;;;;;6085418;29;20315;-69
2022/04/11 13:32:52;;;;;;;2.72;1.67;;;;;;;;;;6075837;29;20328;-69
2022/04/11 13:36:12;;;;;;;2.17;1.35;;;;;;;;;;6083705;29;20240;-70
2022/04/11 13:39:33;;;;;;;3.90;1.35;;;;;;;;;;6086827;29;20778;-71
2022/04/11 13:42:54;;;;;;;2.47;2.03;;;;;;;;;;6077086;29;20252;-71
2022/04/11 13:46:14;;;;;;;4.47;2.00;;;;;;;;;;6085258;29;20228;-70
2022/04/11 13:49:36;;;;;;;3.28;1.77;;;;;;;;;;6088873;29;20230;-70
2022/04/11 13:52:56;;;;;;;3.05;1.90;;;;;;;;;;6078047;29;20229;-70
2022/04/11 13:56:17;;;;;;;4.53;2.85;;;;;;;;;;6079404;29;20232;-69
2022/04/11 13:59:39;;;;;;;3.17;1.98;;;;;;;;;;6094125;29;20757;-69
2022/04/11 14:03:00;;;;;;;2.13;1.70;;;;;;;;;;6083083;29;20781;-70
2022/04/11 14:06:22;;;;;;;4.75;2.55;;;;;;;;;;6090761;29;20603;-70
2022/04/11 14:09:43;;;;;;;4.88;1.73;;;;;;;;;;6089092;29;20606;-73
2022/04/11 14:13:03;;;;;;;2.33;1.70;;;;;;;;;;6083610;29;20264;-69
2022/04/11 14:16:24;;;;;;;3.92;1.65;;;;;;;;;;6078889;29;20630;-69
2022/04/11 14:19:45;;;;;;;2.08;1.25;;;;;;;;;;6087885;29;20233;-69
2022/04/11 14:23:07;;;;;;;1.90;1.30;;;;;;;;;;6088724;29;20240;-71
2022/04/11 14:26:28;;;;;;;3.67;2.00;;;;;;;;;;6085515;29;20558;-71
2022/04/11 14:29:49;;;;;;;2.65;1.55;;;;;;;;;;6089795;29;20236;-69
2022/04/11 14:33:09;;;;;;;2.83;2.03;;;;;;;;;;6093027;29;20236;-70
2022/04/11 14:36:32;;;;;;;2.85;1.85;;;;;;;;;;6089792;29;20554;-71
2022/04/11 14:39:54;;;;;;;2.10;1.88;;;;;;;;;;6088977;29;20521;-69
2022/04/11 14:43:14;;;;;;;3.53;2.35;;;;;;;;;;6085268;29;20243;-70
2022/04/11 14:46:35;;;;;;;2.55;1.95;;;;;;;;;;6077713;29;20237;-72
2022/04/11 14:49:56;;;;;;;2.92;2.38;;;;;;;;;;6082042;29;20232;-69
2022/04/11 14:53:17;;;;;;;3.47;1.52;;;;;;;;;;6078269;29;20619;-70
2022/04/11 14:56:39;;;;;;;2.88;1.77;;;;;;;;;;6080153;29;20621;-70
2022/04/11 15:00:01;;;;;;;3.35;2.17;;;;;;;;;;6080142;29;20585;-71
2022/04/11 15:03:22;;;;;;;2.38;1.60;;;;;;;;;;6078898;29;20320;-71
2022/04/11 15:06:43;;;;;;;3.28;1.75;;;;;;;;;;6079839;29;20546;-70
2022/04/11 15:10:04;;;;;;;4.55;2.40;;;;;;;;;;6078743;29;20616;-71
2022/04/11 15:13:26;;;;;;;3.90;2.83;;;;;;;;;;6083058;29;20229;-71
2022/04/11 15:16:46;;;;;;;4.95;2.08;;;;;;;;;;6086424;29;20313;-71
2022/04/11 15:20:08;;;;;;;3.13;1.85;;;;;;;;;;6089099;29;20236;-70
2022/04/11 15:23:29;;;;;;;3.58;1.63;;;;;;;;;;6090927;29;20237;-71
2022/04/11 15:26:49;;;;;;;5.53;1.90;;;;;;;;;;6088781;29;20745;-70
2022/04/11 15:30:12;;;;;;;3.28;2.00;;;;;;;;;;6088321;29;20236;-70
2022/04/11 15:33:32;;;;;;;3.55;1.65;;;;;;;;;;6088127;29;20228;-70
2022/04/11 15:36:53;;;;;;;4.50;2.33;;;;;;;;;;6087517;29;20240;-73
2022/04/11 15:40:15;;;;;;;2.75;2.35;;;;;;;;;;6090158;29;20228;-71
2022/04/11 15:43:35;;;;;;;2.35;1.75;;;;;;;;;;6091693;29;21473;-69
2022/04/11 15:46:57;;;;;;;9.07;8.25;;;;;;;;;;6087427;29;20590;-72
2022/04/11 15:50:18;;;;;;;7.55;5.63;;;;;;;;;;6087745;29;20236;-71
2022/04/11 15:53:39;;;;;;;3.38;2.33;;;;;;;;;;6079263;29;20443;-71
2022/04/11 15:56:59;;;;;;;2.95;2.15;;;;;;;;;;6087939;29;20288;-70
2022/04/11 16:00:20;;;;;;;2.53;1.50;;;;;;;;;;6085827;29;20266;-71
2022/04/11 16:03:42;;;;;;;2.85;1.83;;;;;;;;;;6084482;29;20236;-71
2022/04/11 16:07:03;;;;;;;5.22;1.83;;;;;;;;;;6090494;29;20232;-71
2022/04/11 16:10:23;;;;;;;3.30;1.80;;;;;;;;;;6089721;29;20261;-70
2022/04/11 16:13:44;;;;;;;4.68;1.40;;;;;;;;;;6091719;29;20229;-71
2022/04/11 16:17:04;;;;;;;3.87;2.00;;;;;;;;;;6089767;29;20320;-71
2022/04/11 16:20:26;;;;;;;3.75;2.28;;;;;;;;;;6091283;29;20220;-71
2022/04/11 16:23:47;;;;;;;3.15;2.50;;;;;;;;;;6087647;29;20233;-71
2022/04/11 16:27:07;;;;;;;8.10;6.85;;;;;;;;;;6089454;29;20828;-70
2022/04/11 16:30:28;;;;;;;11.40;10.00;;;;;;;;;;6086372;29;20254;-70
2022/04/11 16:33:48;;;;;;;12.95;11.70;;;;;;;;;;6086406;29;20236;-70
2022/04/11 16:37:11;;;;;;;29.42;26.48;;;;;;;;;;6089158;29;20706;-69
2022/04/11 16:40:33;;;;;;;19.50;15.98;;;;;;;;;;6088858;29;20236;-69
2022/04/11 16:43:53;;;;;;;26.27;23.77;;;;;;;;;;6086468;29;20237;-70
2022/04/11 16:47:14;;;;;;;24.27;21.58;;;;;;;;;;6087971;29;20235;-70
2022/04/11 16:50:34;;;;;;;13.75;12.25;;;;;;;;;;6085741;29;20247;-70
2022/04/11 16:53:56;;;;;;;13.97;12.50;;;;;;;;;;6087618;29;20232;-70
2022/04/11 16:57:16;;;;;;;35.77;32.13;;;;;;;;;;6090005;29;20236;-70
2022/04/11 17:00:37;;;;;;;16.35;14.65;;;;;;;;;;6086823;29;20674;-70
2022/04/11 17:03:58;;;;;;;10.93;9.93;;;;;;;;;;6090623;29;20497;-70
2022/04/11 17:07:19;;;;;;;17.33;15.53;;;;;;;;;;6090593;29;20241;-70
2022/04/11 17:10:40;;;;;;;16.87;14.37;;;;;;;;;;6087455;29;20517;-70
2022/04/11 17:14:01;;;;;;;6.40;4.40;;;;;;;;;;6084114;29;20533;-70
2022/04/11 17:21:01;;;;;;;5.40;3.33;;;;;;;;;;6086310;29;20236;-70
2022/04/11 17:24:21;;;;;;;3.03;2.53;;;;;;;;;;6086459;29;20845;-70
2022/04/11 17:27:43;;;;;;;4.47;2.10;;;;;;;;;;6081646;29;20241;-70
2022/04/11 17:31:04;;;;;;;7.80;3.13;;;;;;;;;;6078381;29;20233;-70
2022/04/11 17:34:24;;;;;;;39.07;34.90;;;;;;;;;;6077556;29;20228;-70
2022/04/11 17:37:45;;;;;;;51.87;46.63;;;;;;;;;;6077939;29;20619;-71
2022/04/11 17:41:06;;;;;;;20.00;17.23;;;;;;;;;;6076920;29;20327;-70
2022/04/11 17:44:28;;;;;;;20.90;17.10;;;;;;;;;;6076126;29;20244;-70
2022/04/11 17:47:48;;;;;;;18.33;14.47;;;;;;;;;;6075784;29;20244;-70
2022/04/11 17:51:09;;;;;;;28.33;25.03;;;;;;;;;;6072479;29;20607;-69
2022/04/11 17:54:30;;;;;;;15.73;12.47;;;;;;;;;;6080363;29;20536;-69
2022/04/11 17:57:50;;;;;;;7.20;6.33;;;;;;;;;;6086999;29;20548;-70
2022/04/11 18:01:12;;;;;;;2.83;2.30;;;;;;;;;;6078330;29;20240;-69
2022/04/11 18:04:33;;;;;;;4.47;2.00;;;;;;;;;;6064087;29;20236;-69
2022/04/11 18:07:53;;;;;;;1.50;1.33;;;;;;;;;;6083380;29;20232;-69
2022/04/11 18:11:23;;;;;;;15.40;13.60;;;;;;;;;;6092784;29;20248;-70
2022/04/11 18:14:43;;;;;;;19.70;13.47;;;;;;;;;;6093899;29;20251;-69
2022/04/11 18:18:06;;;;;;;15.03;13.43;;;;;;;;;;6090807;29;20217;-68
2022/04/11 18:21:26;;;;;;;18.88;15.55;;;;;;;;;;6084748;29;20768;-69
2022/04/11 18:24:47;;;;;;;20.90;17.93;;;;;;;;;;6091415;29;20237;-69
2022/04/11 18:31:45;;;;;;;22.40;18.10;;;;;;;;;;6091366;29;20498;-69
2022/04/11 18:35:09;;;;;;;20.87;18.87;;;;;;;;;;6091029;29;20248;-69
2022/04/11 18:38:30;;;;;;;7.47;6.80;;;;;;;;;;6091213;29;20236;-69
2022/04/11 18:41:50;;;;;;;2.73;2.23;;;;;;;;;;6082674;29;20630;-68
2022/04/11 18:45:10;;;;;;;3.47;1.70;;;;;;;;;;6087763;29;20735;-69
2022/04/11 18:48:34;;;;;;;9.27;6.97;;;;;;;;;;6087310;29;20547;-67
2022/04/11 18:51:56;;;;;;;24.47;19.37;;;;;;;;;;6085247;29;20236;-68
2022/04/11 18:55:16;;;;;;;19.23;16.50;;;;;;;;;;6092182;29;20236;-68
2022/04/11 18:58:38;;;;;;;28.10;25.20;;;;;;;;;;6079561;29;20256;-68
2022/04/11 19:01:58;;;;;;;31.13;27.73;;;;;;;;;;6085579;29;20236;-68
2022/04/11 19:05:19;;;;;;;16.27;14.68;;;;;;;;;;6092395;29;20760;-68
2022/04/11 19:08:41;;;;;;;28.07;25.17;;;;;;;;;;6088288;29;20237;-68
2022/04/11 19:12:02;;;;;;;8.97;7.90;;;;;;;;;;6069196;29;20555;-68
2022/04/11 19:15:22;;;;;;;4.73;2.30;;;;;;;;;;6070436;29;20552;-68
2022/04/11 19:18:43;;;;;;;4.32;2.30;;;;;;;;;;6073767;29;20756;-68
2022/04/11 19:22:08;;;;;;;2.77;2.10;;;;;;;;;;6080802;29;20244;-68
2022/04/11 19:25:30;;;;;;;5.10;4.50;;;;;;;;;;6077395;29;20232;-69
2022/04/11 19:28:51;;;;;;;2.43;2.23;;;;;;;;;;6079387;29;20306;-69
2022/04/11 19:32:12;;;;;;;2.73;2.00;;;;;;;;;;6076731;29;20254;-69
2022/04/11 19:35:34;;;;;;;2.33;2.13;;;;;;;;;;6077212;29;20229;-69
2022/04/11 19:38:55;;;;;;;5.80;2.60;;;;;;;;;;6078171;29;20229;-70
2022/04/11 19:42:16;;;;;;;3.40;2.67;;;;;;;;;;6084493;29;20240;-69
2022/04/11 19:45:38;;;;;;;2.40;2.20;;;;;;;;;;6080127;29;20241;-70
2022/04/11 19:52:37;;;;;;;4.30;2.40;;;;;;;;;;6086664;29;20763;-70
2022/04/11 19:55:57;;;;;;;4.23;3.07;;;;;;;;;;6081501;29;20240;-69
2022/04/11 19:59:19;;;;;;;6.13;2.17;;;;;;;;;;6084359;29;20415;-69
2022/04/11 20:02:40;;;;;;;3.17;2.10;;;;;;;;;;6077616;29;20224;-69
2022/04/11 20:06:01;;;;;;;3.73;2.37;;;;;;;;;;6079790;29;20229;-69
2022/04/11 20:09:21;;;;;;;3.23;2.83;;;;;;;;;;6089723;29;20233;-69
2022/04/11 20:12:42;;;;;;;4.10;3.20;;;;;;;;;;6083986;29;20249;-70
2022/04/11 20:16:05;;;;;;;3.80;3.27;;;;;;;;;;6080052;29;20232;-70
2022/04/11 20:19:26;;;;;;;4.70;3.83;;;;;;;;;;6082686;29;20327;-68
2022/04/11 20:22:47;;;;;;;3.90;2.70;;;;;;;;;;6085267;29;20252;-70
2022/04/11 20:26:07;;;;;;;4.33;2.83;;;;;;;;;;6082442;29;20324;-69